This is the latest recevied weather packets stored in our database for station/object OK2BOZ-1. If no packets are shown the sender has not sent any weather packets the latest 10 day(s).
| Time | Temp. | Humidity | Pressure | Rain* | Wind** | Luminosity | Snow |
|---|---|---|---|---|---|---|---|
| 1777348367 | 1.67° C | 95% | 1020.2 hPa | - | - | - | - |
| 1777340221 | 2.78° C | 85% | 1020.2 hPa | - | - | - | - |
| 1777327963 | 5.56° C | 74% | 1020.2 hPa | - | - | - | - |
| 1777327320 | 6.11° C | 70% | 1020.1 hPa | - | - | - | - |
| 1777326349 | 6.11° C | 69% | 1020.1 hPa | - | - | - | - |
| 1777325708 | 6.11° C | 69% | 1020.1 hPa | - | - | - | - |
| 1777325065 | 6.11° C | 68% | 1020.1 hPa | - | - | - | - |
| 1777324423 | 6.11° C | 66% | 1020 hPa | - | - | - | - |
| 1777321478 | 7.22° C | 63% | 1020.1 hPa | - | - | - | - |
| 1777320835 | 7.78° C | 61% | 1020 hPa | - | - | - | - |
| 1777319207 | 8.33° C | 59% | 1019.8 hPa | - | - | - | - |
| 1777318853 | 8.89° C | 56% | 1019.8 hPa | - | - | - | - |
| 1777318539 | 9.44° C | 54% | 1019.7 hPa | - | - | - | - |
| 1777318225 | 10° C | 52% | 1019.7 hPa | - | - | - | - |
| 1777317254 | 10.56° C | 51% | 1019.6 hPa | - | - | - | - |
| 1777316940 | 10.56° C | 51% | 1019.6 hPa | - | - | - | - |
| 1777316626 | 10.56° C | 51% | 1019.6 hPa | - | - | - | - |
| 1777316313 | 11.11° C | 50% | 1019.6 hPa | - | - | - | - |
| 1777315998 | 11.11° C | 50% | 1019.6 hPa | - | - | - | - |
| 1777315684 | 11.11° C | 49% | 1019.5 hPa | - | - | - | - |
| 1777315370 | 11.67° C | 49% | 1019.5 hPa | - | - | - | - |
| 1777315056 | 11.67° C | 49% | 1019.4 hPa | - | - | - | - |
| 1777314742 | 11.67° C | 51% | 1019.3 hPa | - | - | - | - |
| 1777314427 | 11.11° C | 52% | 1019.3 hPa | - | - | - | - |
| 1777281739 | 17.22° C | 33% | 1023 hPa | - | - | - | - |
* Rain since midnight (hover to see other rain measurements)
** Current wind speed in m/s (hover to see current wind gust speed)